CST,Max TemperatureF,Mean TemperatureF,Min TemperatureF,Max Dew PointF,MeanDew PointF,Min DewpointF,Max Humidity, Mean Humidity, Min Humidity, Max Sea Level PressureIn, Mean Sea Level PressureIn, Min Sea Level PressureIn, Max VisibilityMiles, Mean VisibilityMiles, Min VisibilityMiles, Max Wind SpeedMPH, Mean Wind SpeedMPH, Max Gust SpeedMPH,PrecipitationIn, CloudCover, Events, WindDirDegrees
2013-12-1,55,46,35,41,37,34,93,74,54,30.13,30.05,29.92,10,10,5,7,2,,0.00,2,,235
2013-12-2,57,45,33,46,41,32,100,88,63,29.91,29.78,29.70,10,8,3,9,3,,0.00,3,,163
2013-12-3,55,50,44,52,48,45,100,94,87,29.74,29.70,29.68,10,5,0,14,6,20,0.00,5,Fog,166
2013-12-4,64,55,44,55,51,41,100,87,67,29.84,29.67,29.56,10,7,0,22,8,30,0.00,6,Fog,176
2013-12-5,44,34,23,41,26,21,93,86,75,30.28,30.12,29.84,10,6,0,15,10,23,0.01,8,Snow-Thunderstorm,324
2013-12-6,23,20,17,21,16,7,93,83,63,30.57,30.37,30.25,10,5,1,15,10,21,0.00,8,Snow,347
2013-12-7,19,14,8,10,6,3,79,68,58,30.70,30.60,30.44,10,10,10,10,6,16,0.00,1,,352
2013-12-8,28,24,19,27,20,10,100,88,68,30.43,30.17,30.01,10,6,2,13,6,,0.00,8,Snow,114
2013-12-9,28,24,21,25,18,12,93,73,59,30.31,30.24,30.10,10,10,2,14,6,22,0.00,5,Snow,294
2013-12-10,33,24,14,19,16,12,93,73,48,30.35,30.30,30.26,10,10,2,13,3,17,0.06,1,Snow,227
2013-12-11,32,23,12,23,15,0,93,74,49,30.66,30.46,30.32,10,10,7,14,4,21,0.06,0,,320
2013-12-12,28,14,1,14,6,-2,92,64,47,30.65,30.50,30.31,10,10,10,13,4,18,0.00,0,,181
2013-12-13,33,27,21,32,23,14,100,79,64,30.30,30.14,29.97,10,9,3,15,7,20,0.03,4,Rain-Snow,161
2013-12-14,33,30,28,32,31,25,100,96,86,30.13,29.94,29.83,10,7,1,17,7,24,0.35,8,Rain-Snow,315
2013-12-15,32,28,24,30,24,21,93,82,69,30.22,30.14,30.05,10,10,7,15,9,25,0.01,6,,232
2013-12-16,41,36,30,32,31,28,93,84,65,30.10,30.04,30.00,10,10,5,9,5,16,0.05,2,,186
2013-12-17,41,34,26,30,27,23,100,80,65,30.29,30.20,30.11,10,8,3,14,6,18,0.00,4,,287
2013-12-18,42,32,23,36,27,19,93,69,45,30.29,30.16,29.99,10,10,10,20,6,26,0.00,0,,184
2013-12-19,53,47,41,46,42,36,87,79,71,29.99,29.93,29.85,10,10,10,24,12,31,0.00,2,,181
2013-12-20,62,50,37,59,50,37,100,87,77,29.87,29.81,29.75,10,9,5,21,14,28,0.11,7,Rain,211
2013-12-21,37,34,32,37,33,32,100,97,93,29.84,29.70,29.54,10,6,1,15,6,21,2.38,8,Rain-Thunderstorm,350
2013-12-22,37,34,30,36,31,27,100,91,81,30.25,29.94,29.65,10,9,3,17,7,25,0.00,8,,279
2013-12-23,30,22,15,27,18,9,86,76,64,30.57,30.45,30.26,10,10,7,14,9,22,0.00,7,,306
2013-12-24,23,16,8,12,6,-2,79,63,46,30.64,30.53,30.38,10,10,10,13,7,16,0.00,0,Snow,190
2013-12-25,35,28,21,30,22,12,93,73,60,30.38,30.31,30.25,10,10,10,12,6,17,0.00,6,,219
2013-12-26,44,35,26,30,28,25,100,78,46,30.41,30.34,30.29,10,9,5,13,6,16,0.00,0,,208
2013-12-27,50,41,32,34,30,27,87,71,47,30.40,30.33,30.29,10,10,10,13,6,18,0.00,0,,199
2013-12-28,50,41,32,32,32,30,93,72,50,30.28,30.14,29.94,10,10,10,13,7,16,0.00,1,,172
2013-12-29,41,31,19,32,25,12,93,78,68,30.26,30.05,29.88,10,10,10,20,8,25,0.00,6,,285
2013-12-30,28,20,12,14,7,3,79,59,40,30.36,30.28,30.24,10,10,10,12,5,,0.00,2,,326
2013-12-31,41,32,23,28,20,12,81,62,45,30.43,30.30,30.23,10,10,10,17,5,26,0.00,0,,205